Terminal Aerodrome Forecast
Issued by NWS

Home | Current Version | Previous Version | Graphics & Text | Print | Product List | Glossary On
Versions: 1 2 3 4 5 6 7 8 9 10 11 12 13 14 15 16 17
000
FTUS42 KMHX 041746 CCA
TAFOAJ
TAF COR
KOAJ 041746Z 0418/0518 22015G25KT P6SM SCT030 BKN050
     FM042200 20015KT P6SM SCT050
     FM050500 20011KT 3SM BR BKN005
     FM051300 28008KT P6SM -RA BKN010
      AMD LTD TO CLD VIS AND WIND=

USA.gov is the U.S. government's official web portal to all federal, state and local government web resources and services.